Tiempo atmosférico en la estación meteorológica de Tijarafe, Santa Cruz de Tenerife (733 m.)



Fecha
DESCASC
Temp. máxima en grados centígrados (hora)
DESCASC
Temp. mínima en grados centígrados (hora)
DESCASC
Temp. media en grados centígrados
DESCASC
Racha de viento máxima en m/sg (hora)
DESCASC
Velocidad máxima media en intervalos de 10 minutos(hora)
DESCASC
Precipitaciones diarias en mm
DESCASC
Precipitaciones de 00:00 a 06:00 en mm
DESCASC
Precipitaciones de 06:00 a 12:00 en mm
DESCASC
Precipitaciones de 12:00 a 18:00 en mm
DESCASC
Precipitaciones de 18:00 a 24:00 en mm
DESCASC
22-11-2020 22.6 (14:00) 15.8 (00:20) 19.2 8.33 (05:50) 3.33 (02:30) 0 0 0 0 0
21-11-2020 23.4 (14:30) 15.9 (23:50) 19.6 9.17 (04:30) 4.17 (20:10) 0 0 0 0 0
20-11-2020 22.2 (14:50) 14.5 (03:40) 18.4 5.83 (23:59) 3.06 (05:40) 0 0 0 0 0
19-11-2020 19.9 (12:30) 14.7 (00:00) 17.3 6.11 (10:00) 2.78 (12:20) 0 0 0 0 0
18-11-2020 25.7 (14:10) 16.8 (00:00) 21.3 6.11 (15:10) 4.17 (14:50) 0 0 0 0 0
17-11-2020 27 (14:30) 20.5 (00:00) 23.8 7.78 (14:20) 1.94 (14:20) 0 0 0 0 0
16-11-2020 26.1 (15:30) 17.2 (00:00) 21.7 6.39 (06:20) 3.33 (06:20) 0 0 0 0 0
15-11-2020 18.9 (13:30) 16.2 (00:00) 17.6 8.06 (05:40) 5.28 (06:00) 1.6 1.2 0.2 0.2 0
14-11-2020 20.9 (12:50) 16.7 (00:00) 18.8 10 (18:30) 5.28 (22:10) 0.2 0 0 0 0.2
13-11-2020 25.4 (12:10) 16.9 (00:00) 21.1 16.67 (06:20) 7.78 (06:10) 0.4 0.2 0.2 0 0
12-11-2020 22.6 (17:20) 17.6 (00:00) 20.1 6.11 (01:00) 3.89 (17:40) 0 0 0 0 0
11-11-2020 20.1 (23:59) 13.7 (00:00) 16.9 7.5 (14:40) 5.28 (14:50) 0 0 0 0 0
10-11-2020 19.5 (12:20) 13.8 (00:00) 16.7 8.33 (16:10) 5.28 (15:10) 0 0 0 0 0
09-11-2020 17.5 (11:30) 12.8 (00:00) 15.2 6.67 (13:10) 3.89 (12:50) 0 0 0 0 0
08-11-2020 19.6 (15:00) 13.1 (00:00) 16.4 5.28 (15:10) 3.06 (05:10) 0.8 0 0.8 0 0
07-11-2020 18.3 (14:40) 12.5 (00:00) 15.4 6.39 (15:30) 4.44 (17:20) 0 0 0 0 0
06-11-2020 17 (16:30) 12.3 (00:00) 14.7 15 (01:50) 10.83 (01:50) 17.4 13.4 3.8 0.2 0
05-11-2020 17.4 (15:50) 12.5 (00:00) 14.9 9.17 (13:30) 5.83 (11:00) 0 0 0 0 0
04-11-2020 19.3 (12:40) 14.1 (00:00) 16.7 6.67 (01:00) 5.28 (06:30) 0.2 0 0 0.2 0
03-11-2020 21.4 (14:20) 15.5 (00:00) 18.4 7.22 (14:40) 4.72 (14:50) 0 0 0 0 0
02-11-2020 25.5 (12:50) 16.2 (00:00) 20.9 8.61 (06:20) 4.17 (01:10) 0 0 0 0 0
01-11-2020 28.8 (12:30) 22.5 (00:00) 25.6 17.78 (00:40) 8.89 (00:10) 0 0 0 0 0
31-10-2020 26.8 (15:40) 15.2 (00:00) 21 20 (23:59) 9.72 (23:00) 0 0 0 0 0
30-10-2020 20.9 (15:20) 14.4 (00:00) 17.6 7.22 (02:40) 2.78 (22:40) 0 0 0 0 0
29-10-2020 20 (12:40) 14.5 (00:00) 17.3 5.56 (12:20) 2.78 (22:50) 0 0 0 0 0
28-10-2020 19.9 (12:20) 14.2 (00:00) 17 6.11 (14:00) 2.78 (13:50) 0 0 0 0 0
27-10-2020 20.1 (13:40) 13.7 (00:00) 16.9 7.5 (17:10) 3.89 (04:00) 0 0 0 0 0
26-10-2020 20.7 (15:50) 13.7 (00:00) 17.2 6.39 (02:20) 4.72 (22:30) 0 0 0 0 0

Gráficas

Temp. máximas Temp. mínimas Temp. medias Precipitaciones Rachas de viento máximas Velocidades máximas media en intervalos de 10 minutos

Datos horarios

Fecha y hora oficial Temperatura (ºC) Velocidad del viento (km/h) Dirección del viento Racha (km/h) Dirección de racha Precipitación (mm) Presión (hPa) Tendencia (hPa) Humedad (%)
2020-11-24 23:00:00 16.4 0 Calma 19 Sudeste 0 -- -- 41
2020-11-24 22:00:00 15.5 13 Sudeste 20 Sudeste 0 -- -- 74
2020-11-24 21:00:00 16 9 Norte 12 Norte 0 -- -- 67
2020-11-24 20:00:00 16.4 2 Este 9 Sur 0 -- -- 68
2020-11-24 19:00:00 16.8 0 Calma 8 Sudeste 0 -- -- 73
2020-11-24 18:00:00 18.9 3 Norte 16 Sudeste 0 -- -- 55
2020-11-24 17:00:00 19.1 3 Sudoeste 12 Oeste 0 -- -- 64
2020-11-24 16:00:00 20.7 7 Noroeste 23 Norte 0 -- -- 45
2020-11-24 15:00:00 20.8 14 Noroeste 21 Norte 0 -- -- 37
2020-11-24 14:00:00 20.6 12 Noroeste 22 Noroeste 0 -- -- 36
2020-11-24 13:00:00 21 12 Noroeste 22 Norte 0 -- -- 29
2020-11-24 12:00:00 21.1 6 Noroeste 13 Noroeste 0 -- -- 28
2020-11-24 11:00:00 19.6 3 Norte 14 Norte 0 -- -- 30
2020-11-24 10:00:00 18.2 10 Norte 12 Norte 0 -- -- 31
2020-11-24 09:00:00 17.6 5 Norte 7 Norte 0 -- -- 30
2020-11-24 08:00:00 18 3 Norte 7 Sudoeste 0 -- -- 27
2020-11-24 07:00:00 18.2 0 Calma 8 Sur 0 -- -- 27
2020-11-24 06:00:00 17.7 3 Norte 8 Nordeste 0 -- -- 28
2020-11-24 05:00:00 17.7 4 Noroeste 12 Nordeste 0 -- -- 29
2020-11-24 04:00:00 16.9 0 Calma 9 Sudeste 0 -- -- 34
2020-11-24 03:00:00 16.9 3 Norte 18 Sudeste 0 -- -- 35
2020-11-24 02:00:00 17.8 6 Nordeste 22 Nordeste 0 -- -- 33
2020-11-24 01:00:00 17.2 6 Noroeste 18 Norte 0 -- -- 36
2020-11-24 00:00:00 16.6 2 Noroeste 9 Norte 0 -- -- 39
2020-11-23 23:00:00 16.6 4 Noroeste 13 Sudoeste 0 -- -- 42
2020-11-23 22:00:00 17.6 7 Sudoeste 16 Oeste 0 -- -- 38
2020-11-23 21:00:00 18.3 4 Oeste 8 Nordeste 0 -- -- 36
2020-11-23 20:00:00 18.5 3 Nordeste 9 Norte 0 -- -- 43
2020-11-23 19:00:00 18.5 3 Nordeste 6 Nordeste 0 -- -- 51
2020-11-23 18:00:00 21.1 0 Calma 7 Sudoeste 0 -- -- 44
2020-11-23 17:00:00 22.4 3 Sudeste 13 Noroeste 0 -- -- 34
2020-11-23 16:00:00 22.8 5 Oeste 14 Sudoeste 0 -- -- 31
2020-11-23 15:00:00 22.6 6 Oeste 18 Sudoeste 0 -- -- 35
2020-11-23 14:00:00 23.2 4 Noroeste 21 Sudoeste 0 -- -- 37
2020-11-23 13:00:00 23 5 Nordeste 17 Sudoeste 0 -- -- 34
2020-11-23 12:00:00 22.2 5 Noroeste 14 Oeste 0 -- -- 36
2020-11-23 11:00:00 21.1 3 Noroeste 7 Noroeste 0 -- -- 40
2020-11-23 10:00:00 18.9 2 Noroeste 11 Oeste 0 -- -- 38
2020-11-23 09:00:00 18 7 Norte 19 Sudeste 0 -- -- 39
2020-11-23 08:00:00 17.5 5 Nordeste 14 Sudeste 0 -- -- 30
2020-11-23 07:00:00 16.9 4 Nordeste 13 Sudoeste 0 -- -- 32
2020-11-23 06:00:00 16.9 2 Norte 13 Este 0 -- -- 35
2020-11-23 05:00:00 16.2 7 Norte 13 Norte 0 -- -- 42
2020-11-23 04:00:00 16.2 5 Norte 12 Norte 0 -- -- 44
2020-11-23 03:00:00 16.7 9 Norte 12 Norte 0 -- -- 44
2020-11-23 02:00:00 17.2 2 Noroeste 14 Nordeste 0 -- -- 39
2020-11-23 01:00:00 17.8 6 Nordeste 13 Nordeste 0 -- -- 37
2020-11-23 00:00:00 17.8 10 Nordeste 14 Nordeste 0 -- -- 35
2020-11-22 23:00:00 17.9 3 Norte 8 Norte 0 -- -- 36
2020-11-22 22:00:00 18 3 Sudeste 9 Sudeste 0 -- -- 40
2020-11-22 21:00:00 17.7 0 Calma 5 Este 0 -- -- 42
2020-11-22 20:00:00 18.1 3 Sudeste 8 Nordeste 0 -- -- 44
2020-11-22 19:00:00 18.2 6 Nordeste 8 Nordeste 0 -- -- 43
2020-11-22 18:00:00 18.9 5 Norte 12 Norte 0 -- -- 41
2020-11-22 17:00:00 20.3 9 Norte 20 Noroeste 0 -- -- 39
2020-11-22 16:00:00 21.9 8 Noroeste 14 Norte 0 -- -- 34
2020-11-22 15:00:00 22.3 7 Noroeste 13 Noroeste 0 -- -- 33
2020-11-22 14:00:00 22.6 9 Noroeste 17 Noroeste 0 -- -- 33
2020-11-22 13:00:00 22.4 6 Noroeste 19 Norte 0 -- -- 35
2020-11-22 12:00:00 21.3 3 Norte 13 Noroeste 0 -- -- 38
2020-11-22 11:00:00 20 2 Norte 10 Sudeste 0 -- -- 39
2020-11-22 10:00:00 19 2 Noroeste 12 Noroeste 0 -- -- 39
2020-11-22 09:00:00 17.9 5 Noroeste 18 Noroeste 0 -- -- 34
2020-11-22 08:00:00 17.8 4 Noroeste 26 Norte 0 -- -- 40
2020-11-22 07:00:00 18.2 8 Norte 25 Norte 0 -- -- 33
2020-11-22 06:00:00 18.2 7 Noroeste 30 Oeste 0 -- -- 31
2020-11-22 05:00:00 18.1 7 Noroeste 26 Sudeste 0 -- -- 32
2020-11-22 04:00:00 17.9 8 Norte 28 Noroeste 0 -- -- 38
2020-11-22 03:00:00 17.5 6 Noroeste 26 Oeste 0 -- -- 45
2020-11-22 02:00:00 17.4 5 Este 15 Sur 0 -- -- 41
2020-11-22 01:00:00 16.2 4 Norte 14 Este 0 -- -- 50
2020-11-22 00:00:00 15.9 3 Nordeste 10 Nordeste 0 -- -- 63
2020-11-21 23:00:00 17 4 Norte 22 Sudeste 0 -- -- 48
2020-11-21 22:00:00 16.7 5 Norte 19 Norte 0 -- -- 60
2020-11-21 21:00:00 16.8 14 Norte 21 Norte 0 -- -- 58
2020-11-21 20:00:00 17.1 14 Norte 18 Norte 0 -- -- 59
2020-11-21 19:00:00 17.6 8 Norte 14 Norte 0 -- -- 64
2020-11-21 18:00:00 18.6 11 Norte 22 Noroeste 0 -- -- 57
2020-11-21 17:00:00 21.2 8 Noroeste 26 Nordeste 0 -- -- 48
2020-11-21 16:00:00 21.8 9 Sur 24 Nordeste 0 -- -- 43
2020-11-21 15:00:00 22.8 7 Nordeste 22 Nordeste 0 -- -- 45
2020-11-21 14:00:00 22.8 9 Nordeste 24 Este 0 -- -- 45
2020-11-21 13:00:00 22.9 5 Norte 17 Sur 0 -- -- 46
2020-11-21 12:00:00 23 4 Norte 18 Sudoeste 0 -- -- 41
2020-11-21 11:00:00 22.2 3 Norte 10 Sudoeste 0 -- -- 37
2020-11-21 10:00:00 21.2 3 Norte 14 Sur 0 -- -- 33
2020-11-21 09:00:00 19.8 2 Norte 13 Noroeste 0 -- -- 34
2020-11-21 08:00:00 19.4 4 Noroeste 17 Nordeste 0 -- -- 34
2020-11-21 07:00:00 19.3 3 Noroeste 26 Sudeste 0 -- -- 33
2020-11-21 06:00:00 19.8 9 Sudeste 23 Sudeste 0 -- -- 32
2020-11-21 05:00:00 19.7 5 Norte 33 Sur 0 -- -- 31
2020-11-21 04:00:00 20.1 7 Noroeste 25 Nordeste 0 -- -- 27
2020-11-21 03:00:00 20.3 8 Noroeste 23 Nordeste 0 -- -- 29
2020-11-21 02:00:00 20 7 Noroeste 20 Noroeste 0 -- -- 32
2020-11-21 01:00:00 19.7 4 Noroeste 17 Norte 0 -- -- 33
2020-11-21 00:00:00 19.8 6 Noroeste 21 Sudeste 0 -- -- 35
2020-11-20 23:00:00 19.6 4 Norte 17 Sudeste 0 -- -- 36
2020-11-20 22:00:00 18.8 4 Nordeste 16 Este 0 -- -- 41
2020-11-20 21:00:00 19.1 2 Norte 12 Sur 0 -- -- 41
2020-11-20 20:00:00 19.1 3 Sudeste 12 Nordeste 0 -- -- 48
2020-11-20 19:00:00 19 4 Norte 15 Nordeste 0 -- -- 48
2020-11-20 18:00:00 19.8 3 Nordeste 11 Sudeste 0 -- -- 54
2020-11-20 17:00:00 21.8 2 Noroeste 11 Oeste 0 -- -- 60
2020-11-20 16:00:00 21.5 4 Noroeste 14 Noroeste 0 -- -- 67
2020-11-20 15:00:00 22 4 Noroeste 11 Noroeste -- -- -- 64
2020-11-20 14:00:00 21.6 3 Norte 8 Norte 0 -- -- 69
2020-11-20 13:00:00 20.6 3 Norte 15 Noroeste 0 -- -- 73
2020-11-20 12:00:00 18.3 5 Nordeste 18 Norte 0 -- -- 84
2020-11-20 11:00:00 18 3 Norte 9 Noroeste 0 -- -- 79
2020-11-20 10:00:00 16.6 3 Nordeste 9 Sudeste 0 -- -- 78
2020-11-20 09:00:00 15.5 2 Sudeste 7 Nordeste 0 -- -- 68
2020-11-20 08:00:00 16.1 3 Noroeste 12 Sudeste 0 -- -- 62
2020-11-20 07:00:00 15.1 3 Este 10 Este 0 -- -- 71
2020-11-20 06:00:00 15.2 3 Sur 15 Nordeste 0 -- -- 70
2020-11-20 05:00:00 16 2 Norte 14 Norte 0 -- -- 54
2020-11-20 04:00:00 14.8 3 Norte 9 Norte 0 -- -- 84
2020-11-20 03:00:00 14.9 2 Nordeste 10 Este 0 -- -- 79
2020-11-20 02:00:00 14.8 2 Noroeste 8 Norte 0 -- -- 73
2020-11-20 01:00:00 14.9 3 Norte 9 Oeste 0 -- -- 78
2020-11-20 00:00:00 14.8 3 Noroeste 6 Noroeste 0 -- -- 81
2020-11-19 23:00:00 14.9 2 Noroeste 6 Noroeste 0 -- -- 82
2020-11-19 22:00:00 15 3 Noroeste 8 Noroeste 0 -- -- 84
2020-11-19 21:00:00 14.9 2 Norte 7 Noroeste 0 -- -- 87
2020-11-19 20:00:00 15.5 0 Calma 6 Este 0 -- -- 85
2020-11-19 19:00:00 16.1 2 Oeste 8 Oeste 0 -- -- 83
2020-11-19 18:00:00 17.2 2 Noroeste 15 Noroeste 0 -- -- 85
2020-11-19 17:00:00 17.9 6 Oeste 13 Oeste 0 -- -- 80
2020-11-19 16:00:00 18.7 5 Oeste 13 Noroeste 0 -- -- 78
2020-11-19 15:00:00 17.6 4 Noroeste 14 Noroeste 0 -- -- 83
2020-11-19 14:00:00 18 5 Noroeste 14 Noroeste 0 -- -- 81
2020-11-19 13:00:00 18.8 6 Noroeste 19 Oeste 0 -- -- 77
2020-11-19 12:00:00 19.4 5 Noroeste 20 Sudoeste 0 -- -- 74
2020-11-19 11:00:00 18.1 5 Oeste 18 Sudoeste 0 -- -- 82
2020-11-19 10:00:00 17 10 Oeste 22 Sudoeste 0 -- -- 88
2020-11-19 09:00:00 15.8 5 Noroeste 14 Noroeste 0 -- -- 90
2020-11-19 08:00:00 15.2 3 Noroeste 7 Noroeste 0 -- -- 93
2020-11-19 07:00:00 15.1 3 Norte 8 Noroeste 0 -- -- 93
2020-11-19 06:00:00 15.4 3 Noroeste 9 Noroeste 0 -- -- 93
2020-11-19 05:00:00 15.5 4 Sur 13 Sudeste 0 -- -- 89
2020-11-19 04:00:00 15.6 2 Sur 12 Norte 0 -- -- 90
2020-11-19 03:00:00 16.1 2 Sudeste 9 Nordeste 0 -- -- 86
2020-11-19 02:00:00 16.1 2 Nordeste 13 Sudeste 0 -- -- 89
2020-11-19 01:00:00 17.1 3 Sudeste 15 Sudeste 0 -- -- 65
2020-11-19 00:00:00 16.8 3 Sudeste 10 Norte 0 -- -- 86
2020-11-18 23:00:00 17.6 3 Norte 9 Sudeste 0 -- -- 62
2020-11-18 22:00:00 19.7 6 Sudeste 8 Sudeste 0 -- -- 54
2020-11-18 21:00:00 20.8 5 Sudeste 8 Sudeste 0 -- -- 37
2020-11-18 20:00:00 21.2 7 Sudeste 9 Sudeste 0 -- -- 38
2020-11-18 19:00:00 21.7 3 Este 9 Sudeste 0 -- -- 39
2020-11-18 18:00:00 23.4 3 Norte 10 Norte 0 -- -- 40
2020-11-18 17:00:00 23.8 4 Norte 9 Sur 0 -- -- 43
2020-11-18 16:00:00 24.3 5 Sudoeste 22 Noroeste 0 -- -- 37
2020-11-18 15:00:00 25.4 13 Norte 20 Noroeste 0 -- -- 28
2020-11-18 14:00:00 25.5 9 Norte 16 Noroeste 0 -- -- 31
2020-11-18 13:00:00 25 8 Noroeste 12 Noroeste 0 -- -- 29
2020-11-18 12:00:00 24.9 6 Noroeste 10 Norte 0 -- -- 26
2020-11-18 11:00:00 23.9 2 Norte 9 Este 0 -- -- 32
2020-11-18 10:00:00 22.7 4 Nordeste 10 Nordeste 0 -- -- 30
2020-11-18 09:00:00 21.9 2 Nordeste 9 Sudeste 0 -- -- 29
2020-11-18 08:00:00 22 0 Calma 10 Sudeste 0 -- -- 28
2020-11-18 07:00:00 22.4 8 Sudeste 18 Sudeste 0 -- -- 27
2020-11-18 06:00:00 22 3 Este 9 Este 0 -- -- 28
2020-11-18 05:00:00 21.3 2 Noroeste 7 Este 0 -- -- 30
2020-11-18 04:00:00 21.2 3 Nordeste 8 Nordeste 0 -- -- 30
2020-11-18 03:00:00 21.1 2 Noroeste 7 Sudeste 0 -- -- 30
2020-11-18 02:00:00 21.7 4 Este 8 Este 0 -- -- 28
2020-11-18 01:00:00 21.3 3 Norte 13 Sudeste 0 -- -- 28
2020-11-18 00:00:00 20.9 0 Calma 8 Sudeste 0 -- -- 29
2020-11-17 23:00:00 21.3 0 Calma 5 Norte 0 -- -- 29
2020-11-17 22:00:00 20.9 2 Sudeste 8 Sudeste 0 -- -- 30
2020-11-17 21:00:00 21.2 0 Calma 6 Sur 0 -- -- 29
2020-11-17 20:00:00 21.6 3 Norte 8 Norte 0 -- -- 27
2020-11-17 19:00:00 22.4 3 Noroeste 8 Nordeste 0 -- -- 26
2020-11-17 18:00:00 25 3 Nordeste 11 Sudoeste 0 -- -- 24
2020-11-17 17:00:00 25.8 5 Norte 16 Este 0 -- -- 23
2020-11-17 16:00:00 26.8 6 Norte 20 Nordeste 0 -- -- 24
2020-11-17 15:00:00 26.3 7 Nordeste 28 Nordeste 0 -- -- 26
2020-11-17 14:00:00 26.9 6 Norte 19 Este 0 -- -- 29
2020-11-17 13:00:00 26.7 4 Noroeste 12 Oeste 0 -- -- 32
2020-11-17 12:00:00 25.9 4 Noroeste 16 Sudoeste 0 -- -- 32
2020-11-17 11:00:00 25.7 3 Norte 15 Noroeste 0 -- -- 28
2020-11-17 10:00:00 23.5 4 Noroeste 14 Noroeste 0 -- -- 28
2020-11-17 09:00:00 22.3 5 Norte 14 Sudoeste 0 -- -- 28
2020-11-17 08:00:00 22.1 5 Noroeste 16 Noroeste 0 -- -- 27
2020-11-17 07:00:00 22.2 5 Noroeste 15 Norte 0 -- -- 27
2020-11-17 06:00:00 22.4 4 Noroeste 11 Norte 0 -- -- 27
2020-11-17 05:00:00 22.2 3 Noroeste 10 Noroeste 0 -- -- 27
2020-11-17 04:00:00 22.2 5 Noroeste 12 Noroeste 0 -- -- 27
2020-11-17 03:00:00 22.1 3 Norte 14 Noroeste 0 -- -- 26
2020-11-17 02:00:00 21.8 4 Noroeste 9 Oeste 0 -- -- 27
2020-11-17 01:00:00 22 4 Nordeste 12 Oeste 0 -- -- 27
2020-11-17 00:00:00 22.1 4 Noroeste 14 Norte 0 -- -- 26
2020-11-16 23:00:00 22.1 4 Noroeste 11 Norte 0 -- -- 27
2020-11-16 22:00:00 22.2 3 Noroeste 9 Oeste 0 -- -- 27
2020-11-16 21:00:00 22.1 5 Noroeste 14 Oeste 0 -- -- 28
2020-11-16 20:00:00 22 4 Oeste 14 Nordeste 0 -- -- 29
2020-11-16 19:00:00 22 5 Noroeste 17 Nordeste 0 -- -- 32
2020-11-16 18:00:00 23.5 6 Norte 12 Noroeste 0 -- -- 31
2020-11-16 17:00:00 24.5 4 Norte 17 Sur 0 -- -- 31
2020-11-16 16:00:00 25.7 4 Norte 16 Sudoeste 0 -- -- 31
2020-11-16 15:00:00 25.7 6 Norte 15 Este 0 -- -- 27
2020-11-16 14:00:00 25.8 3 Norte 11 Sudoeste 0 -- -- 30
2020-11-16 13:00:00 24.5 4 Noroeste 12 Oeste 0 -- -- 43
2020-11-16 12:00:00 24 4 Noroeste 10 Oeste 0 -- -- 42
2020-11-16 11:00:00 21.9 3 Nordeste 9 Noroeste 0 -- -- 38
2020-11-16 10:00:00 20.1 3 Norte 18 Sudeste 0 -- -- 37
2020-11-16 09:00:00 18.6 5 Oeste 16 Este 0 -- -- 43
2020-11-16 08:00:00 19 4 Noroeste 21 Sudeste 0 -- -- 36
2020-11-16 07:00:00 18.9 6 Oeste 23 Sudeste 0 -- -- 41
2020-11-16 06:00:00 17.6 3 Sudoeste 16 Sudeste 0 -- -- 52
2020-11-16 05:00:00 19.1 4 Oeste 14 Este 0 -- -- 45
2020-11-16 04:00:00 19.3 5 Norte 16 Este 0 -- -- 45
2020-11-16 03:00:00 18.8 4 Noroeste 17 Sudeste 0 -- -- 48
2020-11-16 02:00:00 18.8 5 Sudeste 20 Sudeste 0 -- -- 43
2020-11-16 01:00:00 17.6 4 Sudeste 22 Sudeste 0 -- -- 69
2020-11-16 00:00:00 17.2 3 Este 13 Sudeste 0 -- -- 71
2020-11-15 23:00:00 16.9 3 Este 12 Sudeste 0 -- -- 83
2020-11-15 22:00:00 16.3 0 Calma 7 Este 0 -- -- 91
2020-11-15 21:00:00 16.8 4 Sur 16 Sudeste 0 -- -- 92
2020-11-15 20:00:00 16.8 8 Sudeste 16 Sudeste 0 -- -- 97
2020-11-15 19:00:00 17.3 2 Noroeste 10 Sudeste 0 -- -- 97
2020-11-15 18:00:00 17.7 0 Calma 7 Sudeste 0.2 -- -- 95
2020-11-15 17:00:00 18.7 2 Sudeste 13 Oeste 0 -- -- 92
2020-11-15 16:00:00 18.2 5 Noroeste 12 Noroeste 0 -- -- 94
2020-11-15 15:00:00 18.4 3 Norte 8 Oeste 0 -- -- 94
2020-11-15 14:00:00 18.3 7 Noroeste 19 Noroeste 0 -- -- 93
2020-11-15 13:00:00 18 6 Noroeste 13 Noroeste 0 -- -- 94
2020-11-15 12:00:00 17.8 8 Noroeste 17 Noroeste 0 -- -- 97
2020-11-15 11:00:00 17.3 12 Noroeste 21 Noroeste 0 -- -- 99
2020-11-15 10:00:00 17.5 5 Noroeste 18 Norte 0 -- -- 99
2020-11-15 09:00:00 16.8 10 Nordeste 15 Nordeste 0 -- -- 99
2020-11-15 08:00:00 16.8 6 Norte 23 Noroeste 0 -- -- 99
2020-11-15 07:00:00 16.6 7 Norte 24 Noroeste 0.2 -- -- 99
2020-11-15 06:00:00 16.8 19 Norte 29 Norte 0 -- -- 99
2020-11-15 05:00:00 16.7 14 Noroeste 22 Norte 0 -- -- 99
2020-11-15 04:00:00 16.2 9 Norte 27 Noroeste 0.2 -- -- 99
2020-11-15 03:00:00 16.8 11 Noroeste 24 Noroeste 0.2 -- -- 99
2020-11-15 02:00:00 16.8 9 Norte 22 Oeste 0.8 -- -- 99
2020-11-15 01:00:00 16.8 13 Noroeste 26 Noroeste 0 -- -- 98
2020-11-15 00:00:00 16.9 16 Noroeste 26 Noroeste 0 -- -- 98
2020-11-14 23:00:00 16.9 11 Noroeste 31 Norte 0 -- -- 98
2020-11-14 22:00:00 17 16 Noroeste 25 Noroeste 0.2 -- -- 98
2020-11-14 21:00:00 16.9 13 Norte 26 Norte 0 -- -- 89
2020-11-14 20:00:00 17 5 Norte 21 Noroeste 0 -- -- 93
2020-11-14 19:00:00 17.2 12 Noroeste 36 Noroeste 0 -- -- 93
2020-11-14 18:00:00 17.6 8 Norte 20 Noroeste 0 -- -- 91
2020-11-14 17:00:00 18 10 Noroeste 26 Noroeste 0 -- -- 92
2020-11-14 16:00:00 18.4 16 Noroeste 26 Norte 0 -- -- 89
2020-11-14 15:00:00 19.2 9 Noroeste 22 Noroeste 0 -- -- 81
2020-11-14 14:00:00 20.4 6 Noroeste 20 Noroeste 0 -- -- 75
2020-11-14 13:00:00 20.5 7 Norte 21 Noroeste 0 -- -- 74
2020-11-14 12:00:00 20.3 4 Norte 17 Sudoeste 0 -- -- 70
2020-11-14 11:00:00 19.7 3 Norte 15 Sudeste 0 -- -- 73
2020-11-14 10:00:00 18.3 4 Norte 14 Norte 0 -- -- 78
2020-11-14 09:00:00 17.7 3 Norte 21 Noroeste 0 -- -- 89
2020-11-14 08:00:00 17.2 5 Norte 25 Oeste 0 -- -- 87
2020-11-14 07:00:00 17.6 5 Sur 13 Oeste 0 -- -- 85
2020-11-14 06:00:00 17.7 3 Oeste 15 Sudeste 0 -- -- 70
2020-11-14 05:00:00 18.2 2 Sudeste 13 Oeste 0 -- -- 69
2020-11-14 04:00:00 18.5 6 Norte 22 Sudeste 0 -- -- 40
2020-11-14 03:00:00 18.4 4 Noroeste 10 Norte 0 -- -- 39
2020-11-14 02:00:00 19.3 4 Noroeste 17 Sudeste 0 -- -- 35
2020-11-14 01:00:00 19.6 6 Nordeste 28 Sudeste 0 -- -- 33
2020-11-14 00:00:00 18.8 5 Norte 35 Sudeste 0 -- -- 36
2020-11-13 23:00:00 18.1 8 Nordeste 30 Sudeste 0 -- -- 50
2020-11-13 22:00:00 19.6 6 Noroeste 19 Sudoeste 0 -- -- 35
2020-11-13 21:00:00 19.2 5 Norte 17 Sudeste 0 -- -- 41
2020-11-13 20:00:00 19.1 4 Este 18 Sudeste 0 -- -- 56
2020-11-13 19:00:00 18.5 5 Nordeste 18 Sudoeste 0 -- -- 57
2020-11-13 18:00:00 19.4 7 Noroeste 26 Sudeste 0 -- -- 56
2020-11-13 17:00:00 20.6 6 Norte 19 Sudoeste 0 -- -- 65
2020-11-13 16:00:00 22.4 5 Nordeste 23 Sudoeste 0 -- -- 46
2020-11-13 15:00:00 21.6 8 Nordeste 26 Este 0 -- -- 53
2020-11-13 14:00:00 24.1 7 Noroeste 18 Sudoeste 0 -- -- 41
2020-11-13 13:00:00 23.7 6 Norte 17 Este 0 -- -- 37
2020-11-13 12:00:00 24.8 6 Nordeste 17 Sudoeste 0 -- -- 30
2020-11-13 11:00:00 24.5 4 Norte 15 Sudeste 0 -- -- 29
2020-11-13 10:00:00 23.5 6 Noroeste 17 Nordeste 0 -- -- 25
2020-11-13 09:00:00 22.3 4 Norte 19 Norte 0 -- -- 28
2020-11-13 08:00:00 21.6 12 Noroeste 26 Sudeste 0 -- -- 36
2020-11-13 07:00:00 18.7 2 Sur 60 Sudeste 0.2 -- -- 64
2020-11-13 06:00:00 19 15 Sudeste 48 Sur 0.2 -- -- 54
2020-11-13 05:00:00 19.4 18 Nordeste 25 Nordeste 0 -- -- 53
2020-11-13 04:00:00 17.6 19 Norte 24 Norte 0 -- -- 89
2020-11-13 03:00:00 19 4 Sudeste 15 Sudeste 0 -- -- 65
2020-11-13 02:00:00 20.6 3 Sudeste 17 Sudeste 0 -- -- 60
2020-11-13 01:00:00 20.4 5 Sudeste 10 Sudeste 0 -- -- 60
2020-11-13 00:00:00 19.8 4 Sur 7 Oeste 0 -- -- 65
2020-11-12 23:00:00 19.4 3 Sur 9 Sudeste 0 -- -- 57
2020-11-12 22:00:00 19.6 2 Norte 8 Noroeste 0 -- -- 61
2020-11-12 21:00:00 19.6 3 Norte 9 Nordeste 0 -- -- 70
2020-11-12 20:00:00 19.5 3 Norte 7 Norte 0 -- -- 75
2020-11-12 19:00:00 21.2 5 Este 14 Sudeste 0 -- -- 66
2020-11-12 18:00:00 19.9 8 Nordeste 20 Norte 0 -- -- 69
2020-11-12 17:00:00 21.2 4 Sudeste 19 Este 0 -- -- 65
2020-11-12 16:00:00 18.7 11 Norte 17 Noroeste 0 -- -- 92
2020-11-12 15:00:00 21.2 3 Norte 14 Noroeste 0 -- -- 80
2020-11-12 14:00:00 21 4 Norte 15 Sudoeste 0 -- -- 72
2020-11-12 13:00:00 20.5 3 Noroeste 12 Sudeste 0 -- -- 83
2020-11-12 12:00:00 20.1 5 Noroeste 16 Sudeste 0 -- -- 81
2020-11-12 11:00:00 19.8 2 Nordeste 14 Norte 0 -- -- 79
2020-11-12 10:00:00 20.7 3 Norte 18 Sudeste 0 -- -- 62
2020-11-12 09:00:00 18.5 5 Norte 10 Norte 0 -- -- 63
2020-11-12 08:00:00 19.2 3 Este 17 Sudeste 0 -- -- 64
2020-11-12 07:00:00 19 11 Sudeste 18 Sudeste 0 -- -- 65
2020-11-12 06:00:00 20.1 7 Sudeste 13 Sudeste 0 -- -- 59
2020-11-12 05:00:00 20.2 0 Calma 6 Nordeste 0 -- -- 60
2020-11-12 04:00:00 20.6 9 Sudeste 17 Sudeste 0 -- -- 57
2020-11-12 03:00:00 19.4 4 Sudeste 19 Norte 0 -- -- 59
2020-11-12 02:00:00 20 6 Sudeste 22 Sudeste 0 -- -- 63
2020-11-12 01:00:00 19.3 10 Norte 22 Norte 0 -- -- 67
2020-11-12 00:00:00 20.1 10 Nordeste 17 Sudeste 0 -- -- 54
2020-11-11 23:00:00 18.6 16 Sudeste 25 Este 0 -- -- 67
2020-11-11 22:00:00 16.1 10 Nordeste 20 Sudeste 0 -- -- 91
2020-11-11 21:00:00 16.1 12 Norte 19 Norte 0 -- -- 93
2020-11-11 20:00:00 16.1 2 Este 10 Norte 0 -- -- 93
2020-11-11 19:00:00 16.2 3 Norte 10 Nordeste 0 -- -- 94
2020-11-11 18:00:00 17 3 Noroeste 13 Norte 0 -- -- 89
2020-11-11 17:00:00 17.7 11 Norte 18 Noroeste 0 -- -- 86
2020-11-11 16:00:00 17.4 9 Norte 17 Norte 0 -- -- 86
2020-11-11 15:00:00 17.5 14 Norte 27 Norte 0 -- -- 86
2020-11-11 14:00:00 17.8 5 Norte 15 Norte 0 -- -- 84
2020-11-11 13:00:00 17.4 11 Norte 19 Norte 0 -- -- 85
2020-11-11 12:00:00 17.6 3 Norte 18 Noroeste 0 -- -- 84
2020-11-11 11:00:00 16.9 6 Noroeste 17 Sur 0 -- -- 86
2020-11-11 10:00:00 16.1 8 Noroeste 15 Noroeste 0 -- -- 90
2020-11-11 09:00:00 15 5 Noroeste 12 Noroeste 0 -- -- 89
2020-11-11 08:00:00 14.5 3 Sudeste 13 Este 0 -- -- 87
2020-11-11 07:00:00 15 5 Sudeste 11 Sudeste 0 -- -- 74
2020-11-11 06:00:00 15.3 4 Noroeste 14 Sudeste 0 -- -- 75
2020-11-11 05:00:00 14.8 3 Sur 15 Sudeste 0 -- -- 80
2020-11-11 04:00:00 14.3 0 Calma 14 Noroeste 0 -- -- 89
2020-11-11 03:00:00 14.8 7 Este 16 Noroeste 0 -- -- 76
2020-11-11 02:00:00 14 3 Norte 15 Nordeste 0 -- -- 89
2020-11-11 01:00:00 14 7 Noroeste 15 Noroeste 0 -- -- 92
2020-11-11 00:00:00 14.2 5 Este 7 Nordeste 0 -- -- 88
2020-11-10 23:00:00 14.4 0 Calma 12 Norte 0 -- -- 89
2020-11-10 22:00:00 14.7 0 Calma 13 Nordeste 0 -- -- 87
2020-11-10 21:00:00 14.5 10 Nordeste 18 Norte 0 -- -- 86
2020-11-10 20:00:00 14.8 0 Calma 21 Nordeste 0 -- -- 88
2020-11-10 19:00:00 14.8 13 Norte 26 Norte 0 -- -- 93
2020-11-10 18:00:00 15.5 19 Norte 26 Norte 0 -- -- 91
2020-11-10 17:00:00 15.8 15 Norte 30 Norte 0 -- -- 88
2020-11-10 16:00:00 16.1 19 Norte 29 Norte 0 -- -- 87
2020-11-10 15:00:00 17 18 Norte 28 Noroeste 0 -- -- 83
2020-11-10 14:00:00 17.7 5 Norte 17 Noroeste 0 -- -- 74
2020-11-10 13:00:00 19.5 7 Noroeste 19 Oeste 0 -- -- 72
2020-11-10 12:00:00 18.9 5 Noroeste 16 Nordeste 0 -- -- 72
2020-11-10 11:00:00 18.3 5 Nordeste 19 Oeste 0 -- -- 77
2020-11-10 10:00:00 16.3 3 Norte 11 Oeste 0 -- -- 77
2020-11-10 09:00:00 14.3 3 Nordeste 12 Este 0 -- -- 79
2020-11-10 08:00:00 13.8 8 Norte 12 Nordeste 0 -- -- 84
2020-11-10 07:00:00 14 8 Norte 15 Nordeste 0 -- -- 80
2020-11-10 06:00:00 13.9 3 Este 12 Nordeste 0 -- -- 80
2020-11-10 05:00:00 14.3 2 Norte 7 Noroeste 0 -- -- 89
2020-11-10 04:00:00 14.2 5 Norte 14 Norte 0 -- -- 88
2020-11-10 03:00:00 14.3 8 Noroeste 24 Nordeste 0 -- -- 90
2020-11-10 02:00:00 14.7 4 Norte 22 Noroeste 0 -- -- 91
2020-11-10 01:00:00 14.5 7 Noroeste 20 Oeste 0 -- -- 88
2020-11-10 00:00:00 14.9 2 Norte 13 Sur 0 -- -- 87
2020-11-09 23:00:00 14.9 3 Sudeste 20 Sudoeste 0 -- -- 89
2020-11-09 22:00:00 15.2 4 Nordeste 14 Norte 0 -- -- 91
2020-11-09 21:00:00 15.1 3 Nordeste 11 Nordeste 0 -- -- 85
2020-11-09 20:00:00 15.3 5 Norte 9 Noroeste 0 -- -- 91
2020-11-09 19:00:00 15.5 5 Norte 9 Noroeste 0 -- -- 90
2020-11-09 18:00:00 16.4 4 Norte 12 Sur 0 -- -- 82
2020-11-09 17:00:00 16.8 3 Noroeste 12 Norte 0 -- -- 84
2020-11-09 16:00:00 17.1 4 Noroeste 11 Sudoeste 0 -- -- 80
2020-11-09 15:00:00 17 4 Noroeste 12 Noroeste 0 -- -- 77
2020-11-09 14:00:00 16.7 3 Norte 24 Noroeste 0 -- -- 81
2020-11-09 13:00:00 17.5 12 Norte 21 Norte 0 -- -- 79
2020-11-09 12:00:00 17.1 9 Noroeste 17 Noroeste 0 -- -- 78
2020-11-09 11:00:00 16.8 5 Noroeste 14 Oeste 0 -- -- 75
2020-11-09 10:00:00 14.9 4 Norte 12 Norte 0 -- -- 85
2020-11-09 09:00:00 13.6 4 Norte 11 Norte 0 -- -- 81
2020-11-09 08:00:00 13.5 0 Calma 8 Noroeste 0 -- -- 88
2020-11-09 07:00:00 13.3 0 Calma 4 Sudeste 0 -- -- 78
2020-11-09 06:00:00 13.4 0 Calma 4 Sudeste 0 -- -- 77
2020-11-09 05:00:00 12.8 0 Calma 5 Este 0 -- -- 82
2020-11-09 04:00:00 13.1 0 Calma 5 Este 0 -- -- 82
2020-11-09 03:00:00 13.4 0 Calma 10 Sudeste 0 -- -- 83
2020-11-09 02:00:00 13.4 0 Calma 7 Sudeste 0 -- -- 86
2020-11-09 01:00:00 14 4 Sudeste 9 Nordeste 0 -- -- 85
2020-11-09 00:00:00 13.7 8 Nordeste 9 Nordeste 0 -- -- 85
2020-11-08 23:00:00 13.8 5 Nordeste 8 Norte 0 -- -- 86
2020-11-08 22:00:00 14.4 2 Oeste 6 Sudoeste 0 -- -- 87
2020-11-08 21:00:00 14.8 2 Sudoeste 9 Este 0 -- -- 88
2020-11-08 20:00:00 15 2 Norte 13 Este 0 -- -- 86
2020-11-08 19:00:00 16.1 0 Calma 10 Oeste 0 -- -- 80
2020-11-08 18:00:00 18 3 Norte 14 Noroeste 0 -- -- 70
2020-11-08 17:00:00 19.3 7 Noroeste 18 Noroeste 0 -- -- 66
2020-11-08 16:00:00 18.3 3 Norte 19 Sudoeste 0 -- -- 70
2020-11-08 15:00:00 19.6 5 Noroeste 15 Noroeste 0 -- -- 64
2020-11-08 14:00:00 18.5 6 Noroeste 18 Noroeste 0 -- -- 65
2020-11-08 13:00:00 17.5 6 Norte 17 Noroeste 0 -- -- 73
2020-11-08 12:00:00 16.8 3 Norte 10 Noroeste 0 -- -- 77
2020-11-08 11:00:00 16.6 4 Norte 9 Norte 0 -- -- 75
2020-11-08 10:00:00 15.3 0 Calma 5 Noroeste 0 -- -- 82
2020-11-08 09:00:00 13.5 2 Nordeste 8 Nordeste 0 -- -- 80
2020-11-08 08:00:00 13.1 8 Norte 11 Norte 0 -- -- 91
2020-11-08 07:00:00 13.2 6 Nordeste 15 Nordeste 0.8 -- -- 90
2020-11-08 06:00:00 13.6 10 Nordeste 14 Norte 0 -- -- 90
2020-11-08 05:00:00 13.4 8 Nordeste 12 Nordeste 0 -- -- 83
2020-11-08 04:00:00 13.5 9 Nordeste 12 Nordeste 0 -- -- 74
2020-11-08 03:00:00 13.4 5 Nordeste 9 Nordeste 0 -- -- 81
2020-11-08 02:00:00 13.8 0 Calma 5 Nordeste 0 -- -- 87
2020-11-08 01:00:00 13.6 3 Este 5 Este 0 -- -- 85
2020-11-08 00:00:00 13.2 3 Nordeste 6 Nordeste 0 -- -- 83
2020-11-07 23:00:00 13.4 4 Nordeste 11 Nordeste 0 -- -- 78
2020-11-07 22:00:00 13.6 5 Nordeste 9 Norte 0 -- -- 80
2020-11-07 21:00:00 13.8 7 Norte 19 Nordeste 0 -- -- 74
2020-11-07 20:00:00 14.2 12 Norte 15 Norte 0 -- -- 72
2020-11-07 19:00:00 14.8 12 Norte 21 Norte 0 -- -- 72
2020-11-07 18:00:00 16.6 13 Norte 22 Norte 0 -- -- 66
2020-11-07 17:00:00 16.7 15 Norte 23 Norte 0 -- -- 67
2020-11-07 16:00:00 17.9 14 Norte 23 Noroeste 0 -- -- 54
2020-11-07 15:00:00 18.2 8 Noroeste 14 Noroeste 0 -- -- 57
2020-11-07 14:00:00 17.9 6 Noroeste 17 Norte 0 -- -- 61
2020-11-07 13:00:00 17.8 5 Noroeste 13 Noroeste 0 -- -- 63
2020-11-07 12:00:00 17 6 Noroeste 13 Noroeste 0 -- -- 71
2020-11-07 11:00:00 16.6 4 Noroeste 10 Noroeste 0 -- -- 70
2020-11-07 10:00:00 15.2 0 Calma 4 Noroeste 0 -- -- 74
2020-11-07 09:00:00 12.8 0 Calma 5 Norte 0 -- -- 76
2020-11-07 08:00:00 12.8 5 Norte 6 Norte 0 -- -- 80
2020-11-07 07:00:00 12.6 0 Calma 5 Nordeste 0 -- -- 80
2020-11-07 06:00:00 13.1 0 Calma 2 Nordeste 0 -- -- 84
2020-11-07 05:00:00 12.8 0 Calma 10 Norte 0 -- -- 78
2020-11-07 04:00:00 12.9 6 Nordeste 11 Nordeste 0 -- -- 79
2020-11-07 03:00:00 13 8 Nordeste 13 Norte 0 -- -- 68
2020-11-07 02:00:00 12.9 7 Norte 8 Norte 0 -- -- 84
2020-11-07 01:00:00 13.2 4 Nordeste 8 Este 0 -- -- 83
2020-11-07 00:00:00 13.5 6 Nordeste 15 Nordeste 0 -- -- 66
2020-11-06 23:00:00 13.3 9 Nordeste 13 Norte 0 -- -- 76
2020-11-06 22:00:00 13.2 9 Nordeste 19 Nordeste 0 -- -- 72
2020-11-06 21:00:00 13.2 13 Nordeste 17 Nordeste 0 -- -- 75
2020-11-06 20:00:00 13.4 6 Norte 12 Nordeste 0 -- -- 79
2020-11-06 19:00:00 13.9 11 Nordeste 22 Norte 0 -- -- 80
2020-11-06 18:00:00 15.7 15 Norte 28 Noroeste 0 -- -- 77
2020-11-06 17:00:00 16.6 19 Norte 33 Noroeste 0 -- -- 75
2020-11-06 16:00:00 16.7 22 Norte 36 Norte 0 -- -- 71
2020-11-06 15:00:00 16.6 25 Norte 44 Norte 0 -- -- 66
2020-11-06 14:00:00 16.4 26 Norte 40 Nordeste 0.2 -- -- 68
2020-11-06 13:00:00 16.1 17 Norte 35 Norte 0 -- -- 70
2020-11-06 12:00:00 15.3 26 Norte 37 Norte 0 -- -- 86
2020-11-06 11:00:00 14.7 21 Norte 35 Norte 0 -- -- 89
2020-11-06 10:00:00 13.7 21 Norte 32 Nordeste 0 -- -- 99
2020-11-06 09:00:00 13.1 23 Norte 35 Norte 0 -- -- 99
2020-11-06 08:00:00 12.7 23 Norte 39 Norte 0 -- -- 99
2020-11-06 07:00:00 12.3 28 Norte 49 Noroeste 3.8 -- -- 99
2020-11-06 06:00:00 12.9 28 Norte 47 Norte 6.6 -- -- 99
2020-11-06 05:00:00 13.4 18 Norte 34 Norte 0 -- -- 99
2020-11-06 04:00:00 13.2 26 Norte 42 Noroeste 0.6 -- -- 98
2020-11-06 03:00:00 13.8 22 Norte 41 Norte 0.6 -- -- 99
2020-11-06 02:00:00 13.5 36 Norte 54 Norte 3.4 -- -- 97
2020-11-06 01:00:00 13.4 11 Noroeste 25 Norte 2.2 -- -- 96
2020-11-06 00:00:00 13.7 17 Norte 28 Oeste 0 -- -- 88
2020-11-05 23:00:00 13.6 10 Noroeste 17 Noroeste 0 -- -- 85
2020-11-05 22:00:00 13.1 8 Nordeste 24 Nordeste 0 -- -- 85
2020-11-05 21:00:00 13.9 17 Norte 28 Norte 0 -- -- 72
2020-11-05 20:00:00 13.7 18 Norte 27 Noroeste 0 -- -- 73
2020-11-05 19:00:00 14 19 Norte 27 Nordeste 0 -- -- 73
2020-11-05 18:00:00 14.5 13 Norte 24 Norte 0 -- -- 76
2020-11-05 17:00:00 15.7 13 Noroeste 30 Nordeste 0 -- -- 69
2020-11-05 16:00:00 17.1 18 Norte 32 Noroeste 0 -- -- 61
2020-11-05 15:00:00 16.8 20 Norte 30 Noroeste 0 -- -- 63
2020-11-05 14:00:00 17.2 19 Norte 33 Norte 0 -- -- 57
2020-11-05 13:00:00 16.8 12 Norte 28 Noroeste 0 -- -- 59
2020-11-05 12:00:00 15.8 19 Norte 32 Noroeste 0 -- -- 66
2020-11-05 11:00:00 14.4 21 Norte 29 Norte 0 -- -- 80
2020-11-05 10:00:00 14.3 8 Norte 22 Norte 0 -- -- 79
2020-11-05 09:00:00 13.5 10 Norte 20 Norte 0 -- -- 85
2020-11-05 08:00:00 12.8 12 Norte 28 Norte 0 -- -- 69
2020-11-05 07:00:00 12.7 13 Norte 28 Norte 0 -- -- 73
2020-11-05 06:00:00 12.7 3 Oeste 9 Nordeste 0 -- -- 77
2020-11-05 05:00:00 13.1 2 Sudeste 10 Noroeste 0 -- -- 88
2020-11-05 04:00:00 13.4 0 Calma 6 Este 0 -- -- 93
2020-11-05 03:00:00 14.1 3 Sudoeste 9 Sudeste 0 -- -- 91
2020-11-05 02:00:00 14.4 4 Sur 9 Sur 0 -- -- 90
2020-11-05 01:00:00 14.5 0 Calma 4 Sudeste 0 -- -- 91
2020-11-05 00:00:00 14.3 0 Calma 12 Sudeste 0 -- -- 84
2020-11-04 23:00:00 14.1 4 Norte 13 Nordeste 0 -- -- 78
2020-11-04 22:00:00 14.6 4 Sur 9 Sur 0 -- -- 80
2020-11-04 21:00:00 14.9 3 Sur 14 Oeste 0 -- -- 81
2020-11-04 20:00:00 15.8 2 Norte 10 Oeste 0 -- -- 91
2020-11-04 19:00:00 15.9 3 Nordeste 11 Noroeste 0 -- -- 80
2020-11-04 18:00:00 17.7 6 Norte 22 Oeste 0 -- -- 74
2020-11-04 17:00:00 17.8 10 Noroeste 24 Noroeste 0 -- -- 83
2020-11-04 16:00:00 18 14 Noroeste 21 Norte 0 -- -- 81
2020-11-04 15:00:00 17.7 9 Noroeste 17 Norte 0.2 -- -- 85
2020-11-04 14:00:00 17.6 6 Noroeste 16 Noroeste 0 -- -- 86
2020-11-04 13:00:00 18.2 10 Noroeste 18 Noroeste 0 -- -- 82
2020-11-04 12:00:00 17.9 3 Noroeste 18 Oeste 0 -- -- 81
2020-11-04 11:00:00 17.3 9 Norte 22 Norte 0 -- -- 82
2020-11-04 10:00:00 16.7 19 Norte 23 Noroeste 0 -- -- 86
2020-11-04 09:00:00 16.4 5 Este 17 Sudeste 0 -- -- 86
2020-11-04 08:00:00 15.6 14 Norte 18 Norte 0 -- -- 89
2020-11-04 07:00:00 16 6 Nordeste 23 Norte 0 -- -- 85
2020-11-04 06:00:00 16 17 Nordeste 21 Nordeste 0 -- -- 84
2020-11-04 05:00:00 16.2 3 Nordeste 23 Nordeste 0 -- -- 75
2020-11-04 04:00:00 16 15 Nordeste 19 Nordeste 0 -- -- 83
2020-11-04 03:00:00 16.6 12 Norte 20 Nordeste 0 -- -- 71
2020-11-04 02:00:00 16.4 13 Nordeste 23 Nordeste 0 -- -- 77
2020-11-04 01:00:00 17 18 Nordeste 24 Nordeste 0 -- -- 67
2020-11-04 00:00:00 17.7 12 Nordeste 21 Nordeste 0 -- -- 57
2020-11-03 23:00:00 16.8 12 Norte 16 Norte 0 -- -- 60
2020-11-03 22:00:00 16.7 7 Nordeste 14 Este 0 -- -- 70
2020-11-03 21:00:00 16.6 11 Norte 15 Norte 0 -- -- 81
2020-11-03 20:00:00 16.8 3 Este 15 Norte 0 -- -- 81
2020-11-03 19:00:00 17.2 5 Norte 22 Norte 0 -- -- 80
2020-11-03 18:00:00 19.1 11 Norte 23 Noroeste 0 -- -- 73
2020-11-03 17:00:00 20.2 12 Norte 20 Norte 0 -- -- 69
2020-11-03 16:00:00 20.6 12 Noroeste 23 Noroeste 0 -- -- 66
2020-11-03 15:00:00 20 13 Noroeste 26 Noroeste 0 -- -- 70
2020-11-03 14:00:00 20.9 8 Oeste 24 Sudoeste 0 -- -- 65
2020-11-03 13:00:00 20.6 8 Noroeste 20 Noroeste 0 -- -- 69
2020-11-03 12:00:00 19.6 14 Noroeste 20 Noroeste 0 -- -- 74
2020-11-03 11:00:00 19.1 3 Noroeste 22 Norte 0 -- -- 71
2020-11-03 10:00:00 17.7 12 Noroeste 15 Norte 0 -- -- 70
2020-11-03 09:00:00 16.7 2 Noroeste 8 Norte 0 -- -- 66
2020-11-03 08:00:00 16.3 4 Norte 15 Norte 0 -- -- 63
2020-11-03 07:00:00 15.9 4 Nordeste 23 Norte 0 -- -- 69
2020-11-03 06:00:00 15.9 7 Norte 12 Norte 0 -- -- 77
2020-11-03 05:00:00 15.6 2 Sudeste 13 Norte 0 -- -- 81
2020-11-03 04:00:00 15.6 9 Norte 13 Norte 0 -- -- 94
2020-11-03 03:00:00 15.7 9 Nordeste 14 Nordeste 0 -- -- 93
2020-11-03 02:00:00 15.8 8 Norte 16 Norte 0 -- -- 94
2020-11-03 01:00:00 16.1 10 Norte 14 Norte 0 -- -- 92
2020-11-03 00:00:00 16.2 11 Norte 13 Norte 0 -- -- 90
2020-11-02 23:00:00 17 3 Sudeste 10 Sudeste 0 -- -- 86
2020-11-02 22:00:00 17.4 3 Sudeste 15 Sudeste 0 -- -- 84
2020-11-02 21:00:00 17.6 5 Este 15 Sudeste 0 -- -- 82
2020-11-02 20:00:00 18.1 5 Este 12 Sudeste 0 -- -- 66
2020-11-02 19:00:00 18.4 6 Sudeste 15 Sudeste 0 -- -- 62
2020-11-02 18:00:00 19.7 3 Este 15 Sudeste -- -- -- 79
2020-11-02 17:00:00 21.7 3 Sur 9 Sudoeste 0 -- -- 60
2020-11-02 16:00:00 23.7 5 Sudoeste 20 Noroeste 0 -- -- 61
2020-11-02 15:00:00 24.6 9 Norte 22 Norte 0 -- -- 42
2020-11-02 14:00:00 24.1 13 Norte 19 Norte 0 -- -- 53
2020-11-02 13:00:00 25 8 Noroeste 17 Norte 0 -- -- 28
2020-11-02 12:00:00 24.7 5 Noroeste 16 Noroeste 0 -- -- 27
2020-11-02 11:00:00 23.7 9 Norte 14 Noroeste 0 -- -- 42
2020-11-02 10:00:00 23.2 5 Norte 10 Norte 0 -- -- 24
2020-11-02 09:00:00 22.2 6 Nordeste 16 Nordeste 0 -- -- 23
2020-11-02 08:00:00 21.9 8 Nordeste 20 Este 0 -- -- 22
2020-11-02 07:00:00 21.9 9 Nordeste 31 Sudeste 0 -- -- 22
2020-11-02 06:00:00 22.3 8 Nordeste 19 Sur 0 -- -- 21
2020-11-02 05:00:00 22.4 6 Nordeste 26 Este 0 -- -- 22
2020-11-02 04:00:00 22.5 7 Nordeste 23 Sudeste 0 -- -- 21
2020-11-02 03:00:00 22.8 12 Este 24 Este 0 -- -- 21
2020-11-02 02:00:00 22.5 8 Nordeste 26 Este 0 -- -- 23
2020-11-02 01:00:00 22.9 11 Este 27 Sudeste 0 -- -- 21
2020-11-02 00:00:00 23.1 8 Nordeste 35 Este 0 -- -- 21
2020-11-01 23:00:00 23.3 17 Este 45 Sudeste 0 -- -- 20
2020-11-01 22:00:00 23.2 13 Nordeste 29 Sudeste 0 -- -- 23
2020-11-01 21:00:00 23.6 17 Este 32 Este 0 -- -- 20
2020-11-01 20:00:00 23.1 6 Nordeste 30 Sudeste 0 -- -- 25
2020-11-01 19:00:00 23.9 10 Este 31 Sudeste 0 -- -- 21
2020-11-01 18:00:00 25.5 7 Este 18 Sur 0 -- -- 21
2020-11-01 17:00:00 26.5 8 Noroeste 18 Noroeste 0 -- -- 21
2020-11-01 16:00:00 27.2 13 Noroeste 23 Noroeste 0 -- -- 20
2020-11-01 15:00:00 27.9 14 Noroeste 20 Noroeste 0 -- -- 19
2020-11-01 14:00:00 28.5 4 Noroeste 14 Noroeste 0 -- -- 18
2020-11-01 13:00:00 28.5 4 Norte 27 Nordeste 0 -- -- 18
2020-11-01 12:00:00 28.1 8 Norte 36 Este 0 -- -- 19
2020-11-01 11:00:00 26.7 9 Norte 32 Este 0 -- -- 20
2020-11-01 10:00:00 25.4 5 Noroeste 27 Sur 0 -- -- 21
2020-11-01 09:00:00 23.7 9 Norte 41 Sudeste 0 -- -- 22
2020-11-01 08:00:00 22.7 10 Norte 42 Sudeste 0 -- -- 24
2020-11-01 07:00:00 22.6 8 Norte 23 Nordeste 0 -- -- 24
2020-11-01 06:00:00 23 6 Norte 21 Nordeste 0 -- -- 23
2020-11-01 05:00:00 23 9 Norte 38 Este 0 -- -- 23
2020-11-01 04:00:00 23.5 11 Sudoeste 34 Sudoeste 0 -- -- 24
2020-11-01 03:00:00 24.2 8 Norte 42 Sudeste 0 -- -- 21
2020-11-01 02:00:00 24.8 16 Este 52 Sudeste 0 -- -- 20
2020-11-01 01:00:00 24.8 22 Este 64 Sudeste 0 -- -- 20
2020-11-01 00:00:00 24.5 30 Este 72 Sudeste 0 -- -- 21
2020-10-31 23:00:00 24.6 35 Este 71 Sudeste 0 -- -- 20
2020-10-31 22:00:00 24.1 11 Nordeste 32 Nordeste 0 -- -- 20
2020-10-31 21:00:00 25 16 Este 54 Sudeste 0 -- -- 18
2020-10-31 20:00:00 24.1 14 Este 40 Sudeste 0 -- -- 20
2020-10-31 19:00:00 23.4 5 Norte 21 Sudeste 0 -- -- 28
2020-10-31 18:00:00 25.5 4 Sudoeste 15 Noroeste 0 -- -- 35
2020-10-31 17:00:00 25.7 11 Norte 27 Norte 0 -- -- 29
2020-10-31 16:00:00 25.7 13 Noroeste 21 Norte 0 -- -- 29
2020-10-31 15:00:00 25.7 7 Norte 25 Norte 0 -- -- 30
2020-10-31 14:00:00 25.7 16 Norte 32 Norte 0 -- -- 28
2020-10-31 13:00:00 25 13 Norte 24 Norte 0 -- -- 29
2020-10-31 12:00:00 24.5 3 Norte 8 Oeste 0 -- -- 32
2020-10-31 11:00:00 22.9 4 Norte 17 Noroeste 0 -- -- 42
2020-10-31 10:00:00 22.3 5 Norte 28 Noroeste 0 -- -- 39
2020-10-31 09:00:00 18.7 7 Noroeste 26 Nordeste 0 -- -- 56
2020-10-31 08:00:00 20 10 Norte 39 Sudeste 0 -- -- 55
2020-10-31 07:00:00 20.8 10 Norte 30 Nordeste 0 -- -- 31
2020-10-31 06:00:00 21.1 12 Noroeste 28 Norte 0 -- -- 33
2020-10-31 05:00:00 18.8 6 Norte 20 Este 0 -- -- 39
2020-10-31 04:00:00 19.4 8 Nordeste 32 Sudoeste 0 -- -- 36
2020-10-31 03:00:00 16.8 8 Oeste 27 Sur 0 -- -- 55
2020-10-31 02:00:00 15.8 3 Norte 27 Este 0 -- -- 78
2020-10-31 01:00:00 16.4 8 Nordeste 28 Sudeste 0 -- -- 64
2020-10-31 00:00:00 16.7 4 Norte 15 Sudeste 0 -- -- 61
2020-10-30 23:00:00 15.5 5 Este 13 Nordeste 0 -- -- 85
2020-10-30 22:00:00 15.4 4 Sudeste 11 Sudeste 0 -- -- 87
2020-10-30 21:00:00 15.9 5 Sudeste 11 Sudeste 0 -- -- 81
2020-10-30 20:00:00 15.8 7 Norte 8 Norte 0 -- -- 79
2020-10-30 19:00:00 16.9 2 Noroeste 8 Noroeste 0 -- -- 76
2020-10-30 18:00:00 18.6 3 Sudoeste 11 Noroeste 0 -- -- 67
2020-10-30 17:00:00 20.2 6 Noroeste 15 Oeste 0 -- -- 63
2020-10-30 16:00:00 20.6 6 Noroeste 15 Noroeste 0 -- -- 61
2020-10-30 15:00:00 20.6 4 Norte 14 Noroeste 0 -- -- 61
2020-10-30 14:00:00 20.2 6 Noroeste 17 Norte 0 -- -- 64
2020-10-30 13:00:00 20.2 5 Noroeste 19 Noroeste 0 -- -- 64
2020-10-30 12:00:00 19.5 5 Noroeste 14 Oeste 0 -- -- 68
2020-10-30 11:00:00 18.6 3 Noroeste 10 Nordeste 0 -- -- 69
2020-10-30 10:00:00 17.1 4 Noroeste 14 Sudoeste 0 -- -- 73
2020-10-30 09:00:00 15.2 3 Norte 8 Norte 0 -- -- 78
2020-10-30 08:00:00 14.9 0 Calma 5 Sur 0 -- -- 78
2020-10-30 07:00:00 14.7 0 Calma 5 Nordeste 0 -- -- 79
2020-10-30 06:00:00 14.4 3 Nordeste 6 Nordeste 0 -- -- 80
2020-10-30 05:00:00 14.5 0 Calma 8 Este 0 -- -- 80
2020-10-30 04:00:00 14.6 3 Noroeste 11 Nordeste 0 -- -- 79
2020-10-30 03:00:00 15 5 Este 26 Este 0 -- -- 79
2020-10-30 02:00:00 14.8 4 Este 6 Sudoeste 0 -- -- 84
2020-10-30 01:00:00 14.7 2 Nordeste 7 Sudoeste 0 -- -- 86
2020-10-30 00:00:00 15 0 Calma 12 Norte 0 -- -- 90
2020-10-29 23:00:00 14.8 8 Nordeste 14 Norte 0 -- -- 85
2020-10-29 22:00:00 15.5 3 Nordeste 9 Sudeste 0 -- -- 83
2020-10-29 21:00:00 15.8 0 Calma 3 Norte 0 -- -- 87
2020-10-29 20:00:00 15.8 0 Calma 7 Oeste 0 -- -- 87
2020-10-29 19:00:00 15.9 5 Noroeste 7 Noroeste 0 -- -- 86
2020-10-29 18:00:00 16.4 2 Oeste 7 Sudoeste 0 -- -- 84
2020-10-29 17:00:00 16.6 0 Calma 9 Norte 0 -- -- 85
2020-10-29 16:00:00 16.7 4 Noroeste 10 Noroeste 0 -- -- 84
2020-10-29 15:00:00 16.7 4 Noroeste 9 Noroeste 0 -- -- 84
2020-10-29 14:00:00 16.7 5 Noroeste 16 Noroeste 0 -- -- 83
2020-10-29 13:00:00 19.1 7 Norte 20 Noroeste 0 -- -- 71
2020-10-29 12:00:00 18.6 3 Noroeste 17 Oeste 0 -- -- 67
2020-10-29 11:00:00 18.9 6 Norte 16 Oeste 0 -- -- 68
2020-10-29 10:00:00 17.1 2 Noroeste 5 Noroeste 0 -- -- 72
2020-10-29 09:00:00 14.9 0 Calma 5 Norte 0 -- -- 76
2020-10-29 08:00:00 14.9 3 Noroeste 9 Nordeste 0 -- -- 76
2020-10-29 07:00:00 14.9 8 Nordeste 12 Nordeste 0 -- -- 76
2020-10-29 06:00:00 15 0 Calma 8 Norte 0 -- -- 77
2020-10-29 05:00:00 14.9 3 Norte 9 Norte 0 -- -- 78
2020-10-29 04:00:00 14.6 0 Calma 7 Oeste 0 -- -- 78
2020-10-29 03:00:00 14.9 0 Calma 14 Este 0 -- -- 79
2020-10-29 02:00:00 14.5 3 Nordeste 10 Sudeste 0 -- -- 79
2020-10-29 01:00:00 14.9 3 Norte 10 Sudoeste 0 -- -- 77
2020-10-29 00:00:00 15.2 4 Nordeste 10 Nordeste 0 -- -- 77
2020-10-28 23:00:00 15.6 7 Nordeste 12 Nordeste 0 -- -- 76
2020-10-28 22:00:00 15.7 0 Calma 10 Nordeste 0 -- -- 75
2020-10-28 21:00:00 15.5 6 Nordeste 13 Nordeste 0 -- -- 80
2020-10-28 20:00:00 15.5 5 Norte 9 Norte 0 -- -- 75
2020-10-28 19:00:00 16.3 3 Noroeste 10 Nordeste 0 -- -- 73
2020-10-28 18:00:00 18.3 5 Noroeste 18 Noroeste 0 -- -- 70
2020-10-28 17:00:00 18.3 3 Noroeste 12 Noroeste 0 -- -- 69
2020-10-28 16:00:00 17.9 3 Norte 12 Nordeste 0 -- -- 70
2020-10-28 15:00:00 17.9 5 Noroeste 17 Noroeste 0 -- -- 70
2020-10-28 14:00:00 17.9 10 Noroeste 22 Noroeste 0 -- -- 69
2020-10-28 13:00:00 19.4 7 Noroeste 19 Noroeste 0 -- -- 65
2020-10-28 12:00:00 19.5 7 Noroeste 19 Noroeste 0 -- -- 63
2020-10-28 11:00:00 18.6 6 Norte 19 Norte 0 -- -- 69
2020-10-28 10:00:00 17.4 3 Norte 10 Oeste 0 -- -- 67
2020-10-28 09:00:00 15.3 0 Calma 6 Este 0 -- -- 77
2020-10-28 08:00:00 14.7 5 Nordeste 8 Nordeste 0 -- -- 78
2020-10-28 07:00:00 14.5 0 Calma 6 Noroeste 0 -- -- 79
2020-10-28 06:00:00 15.1 5 Este 15 Sudeste 0 -- -- 76
2020-10-28 05:00:00 14.3 2 Norte 8 Noroeste 0 -- -- 80
2020-10-28 04:00:00 14.7 0 Calma 8 Nordeste 0 -- -- 88
2020-10-28 03:00:00 14.9 5 Norte 7 Norte 0 -- -- 89
2020-10-28 02:00:00 15.1 5 Norte 7 Norte 0 -- -- 86
2020-10-28 01:00:00 15.2 0 Calma 9 Norte 0 -- -- 86
2020-10-28 00:00:00 15.1 7 Norte 10 Norte 0 -- -- 85
2020-10-27 23:00:00 15.8 4 Norte 7 Norte 0 -- -- 82
2020-10-27 22:00:00 16 6 Noroeste 12 Noroeste 0 -- -- 82
2020-10-27 21:00:00 15.8 0 Calma 6 Nordeste 0 -- -- 80
2020-10-27 20:00:00 15.8 4 Nordeste 14 Norte 0 -- -- 80
2020-10-27 19:00:00 16.4 5 Noroeste 13 Noroeste 0 -- -- 83
2020-10-27 18:00:00 17.5 3 Noroeste 27 Noroeste 0 -- -- 85
2020-10-27 17:00:00 18.5 7 Noroeste 15 Sudoeste 0 -- -- 80
2020-10-27 16:00:00 17.2 4 Noroeste 18 Noroeste 0 -- -- 89
2020-10-27 15:00:00 17.4 9 Norte 15 Oeste 0 -- -- 89
2020-10-27 14:00:00 19.3 9 Noroeste 22 Sudoeste 0 -- -- 80
2020-10-27 13:00:00 19.8 4 Noroeste 14 Sudoeste 0 -- -- 75
2020-10-27 12:00:00 19.6 6 Noroeste 14 Norte 0 -- -- 76
2020-10-27 11:00:00 18.5 3 Noroeste 12 Oeste 0 -- -- 77
2020-10-27 10:00:00 16.7 3 Norte 9 Noroeste 0 -- -- 83
2020-10-27 09:00:00 14.8 5 Nordeste 9 Norte 0 -- -- 78
2020-10-27 08:00:00 14.4 2 Sudeste 10 Sudeste 0 -- -- 75
2020-10-27 07:00:00 13.9 4 Nordeste 10 Noroeste 0 -- -- 81
2020-10-27 06:00:00 14.1 3 Noroeste 13 Sudeste 0 -- -- 89
2020-10-27 05:00:00 14.1 9 Norte 21 Norte 0 -- -- 89
2020-10-27 04:00:00 14 14 Norte 16 Norte 0 -- -- 86
2020-10-27 03:00:00 14 0 Calma 6 Sudeste 0 -- -- 87
2020-10-27 02:00:00 14.2 3 Norte 8 Noroeste 0 -- -- 94
2020-10-27 01:00:00 14.5 3 Norte 10 Noroeste 0 -- -- 94
2020-10-27 00:00:00 14.6 2 Nordeste 15 Nordeste 0 -- -- 84
2020-10-26 23:00:00 14.8 11 Nordeste 19 Nordeste 0 -- -- 92
2020-10-26 22:00:00 15 2 Norte 10 Noroeste 0 -- -- 90
2020-10-26 21:00:00 15.2 3 Norte 7 Nordeste 0 -- -- 91
2020-10-26 20:00:00 15.5 3 Nordeste 8 Norte 0 -- -- 90
2020-10-26 19:00:00 16.5 0 Calma 6 Oeste 0 -- -- 85
2020-10-26 18:00:00 18.2 3 Oeste 17 Noroeste 0 -- -- 77
2020-10-26 17:00:00 19 6 Sudoeste 15 Sudoeste 0 -- -- 73
2020-10-26 16:00:00 20.6 6 Noroeste 17 Sudoeste 0 -- -- 71
2020-10-26 15:00:00 20.6 4 Norte 17 Oeste 0 -- -- 71
2020-10-26 14:00:00 19.9 8 Noroeste 16 Noroeste 0 -- -- 75
2020-10-26 13:00:00 19.7 5 Norte 16 Norte 0 -- -- 75
2020-10-26 12:00:00 19.5 6 Oeste 18 Nordeste 0 -- -- 73
2020-10-26 11:00:00 18.3 3 Norte 10 Nordeste 0 -- -- 80
2020-10-26 10:00:00 17 3 Norte 10 Norte 0 -- -- 84
2020-10-26 09:00:00 15.1 0 Calma 7 Oeste 0 -- -- 92
2020-10-26 08:00:00 14.1 0 Calma 6 Nordeste 0 -- -- 94
2020-10-26 07:00:00 13.8 3 Norte 6 Norte 0 -- -- 92
2020-10-26 06:00:00 14 3 Noroeste 6 Noroeste 0 -- -- 92
2020-10-26 05:00:00 14.4 0 Calma 9 Norte 0 -- -- 87
2020-10-26 04:00:00 14.5 3 Norte 17 Norte 0 -- -- 86
2020-10-26 03:00:00 15 6 Norte 23 Este 0 -- -- 82
2020-10-26 02:00:00 14.6 2 Este 14 Sudeste 0 -- -- 87
2020-10-26 01:00:00 14.8 12 Nordeste 19 Nordeste 0 -- -- 88
2020-10-26 00:00:00 15 2 Norte 7 Norte 0 -- -- 88